WATT

El Tari Airport

Kupang-Timor Island, Indonesia
TAF WATT 231700Z 2318/2418 10007KT 8000 FEW018 BECMG 2322/2323 11010G20KT BECMG 18008KT 9999 SCT018
Issued Valid From Valid To
Apr-23 @ 17:00 UTC
(6 hours ago)
Apr-23 @ 18:00 UTC
(5 hours ago)
Apr-24 @ 18:00 UTC
(in 19 hours)
Apr-23 @ 18:00 to Apr-24 @ 18:00
TAF WATT 231700Z 2318/2418 10007KT 8000 FEW018
Becoming Apr-23 @ 22:00 to Apr-24 @ 18:00
BECMG 2322/2323 11010G20KT
Wind Visibility Clouds
110° at 10 knots
 Gusting to 20 knots
7,998 meters
  • Few at 1,800' AGL
TAF WATT 231700Z 2318/2418 10007KT 8000 FEW018 BECMG 2322/2323 11010G20KT BECMG 18008KT 9999 SCT018
Issued Apr-23 @ 17:00 UTC
(6 hours ago)
Valid From Apr-23 @ 18:00 UTC
(5 hours ago)
Valid To Apr-24 @ 18:00 UTC
(in 19 hours)
Apr-23 @ 18:00 - Apr-24 @ 18:00
Becoming Apr-23 @ 22:00 - Apr-24 @ 18:00
Wind Visibility
110° at 10 knots
 Gusting to 20 knots
7,998 meters
Clouds
  • Few at 1,800' AGL